createdAt,value
2022-10-16T00:00:33.649Z,97967.13
2022-10-16T00:03:00.448Z,97966.78
2022-10-16T00:05:27.261Z,97968.88
2022-10-16T00:07:53.964Z,97969.38
2022-10-16T00:10:20.724Z,97976.38
2022-10-16T00:12:47.557Z,97974.97
2022-10-16T00:15:14.593Z,97989.22
2022-10-16T00:17:41.332Z,97982.13
2022-10-16T00:20:08.950Z,97982.34
2022-10-16T00:22:35.660Z,97983.66
2022-10-16T00:25:02.409Z,97983.31
2022-10-16T00:27:28.982Z,97982.47
2022-10-16T00:29:55.836Z,97986.81
2022-10-16T00:32:22.845Z,97986.69
2022-10-16T00:34:49.795Z,97992.06
2022-10-16T00:37:16.509Z,97994.94
2022-10-16T00:39:43.234Z,98003.81
2022-10-16T00:42:17.184Z,97997.88
2022-10-16T00:44:56.808Z,97998.91
2022-10-16T00:47:26.759Z,97997.75
2022-10-16T00:50:00.255Z,97996.13
2022-10-16T00:52:27.499Z,97991.81
2022-10-16T00:54:55.450Z,97990.16
2022-10-16T00:57:23.896Z,97984.44
2022-10-16T00:59:51.003Z,97988.19
2022-10-16T01:02:18.664Z,97991.13
2022-10-16T01:04:53.377Z,97988.88
2022-10-16T01:07:27.056Z,97990.97
2022-10-16T01:10:02.992Z,97991.44
2022-10-16T01:13:12.980Z,97988.75
2022-10-16T01:16:17.106Z,97998.13
2022-10-16T01:18:55.714Z,97979.88
2022-10-16T01:21:30.914Z,98004.16
2022-10-16T01:24:06.001Z,97992.84
2022-10-16T01:26:46.343Z,97991.44
2022-10-16T01:29:27.349Z,97994.59
2022-10-16T01:32:00.893Z,97993.41
2022-10-16T01:34:36.397Z,97989.91
2022-10-16T01:37:13.446Z,97994.47
2022-10-16T01:39:42.633Z,97999.03
2022-10-16T01:42:12.181Z,97993.66
2022-10-16T01:44:40.694Z,97997.41
2022-10-16T01:47:11.282Z,98000.09
2022-10-16T01:49:41.772Z,98006.28
2022-10-16T01:52:13.650Z,98016.75
2022-10-16T01:54:44.116Z,98009.75
2022-10-16T01:57:12.494Z,98008.13
2022-10-16T01:59:45.862Z,98004.03
2022-10-16T02:02:14.380Z,98005.91
2022-10-16T02:04:47.309Z,98006.94
2022-10-16T02:07:15.601Z,98011.50
2022-10-16T02:09:42.358Z,98004.13
2022-10-16T02:12:34.651Z,98015.47
2022-10-16T02:15:01.823Z,98013.00
2022-10-16T02:17:28.965Z,98019.44
2022-10-16T02:19:57.484Z,98018.25
2022-10-16T02:22:37.365Z,98022.81
2022-10-16T02:25:10.934Z,98020.22
2022-10-16T02:27:56.041Z,98024.53
2022-10-16T02:30:30.591Z,98030.94
2022-10-16T02:33:00.670Z,98037.59
2022-10-16T02:35:28.898Z,98038.88
2022-10-16T02:37:57.365Z,98037.59
2022-10-16T02:40:25.516Z,98044.00
2022-10-16T02:42:54.250Z,98036.19
2022-10-16T02:45:21.632Z,98042.38
2022-10-16T02:47:48.700Z,98044.47
2022-10-16T02:50:15.494Z,98046.09
2022-10-16T02:52:42.198Z,98049.38
2022-10-16T02:55:09.051Z,98047.75
2022-10-16T02:57:37.812Z,98054.13
2022-10-16T03:00:08.545Z,98057.31
2022-10-16T03:02:35.484Z,98055.66
2022-10-16T03:05:02.283Z,98064.28
2022-10-16T03:07:29.516Z,98059.38
2022-10-16T03:09:56.527Z,98059.38
2022-10-16T03:12:25.860Z,98079.56
2022-10-16T03:14:52.673Z,98063.69
2022-10-16T03:17:19.436Z,98068.47
2022-10-16T03:19:46.144Z,98078.16
2022-10-16T03:22:12.766Z,98078.41
2022-10-16T03:24:39.521Z,98082.91
2022-10-16T03:27:06.202Z,98082.91
2022-10-16T03:29:33.941Z,98080.25
2022-10-16T03:32:01.272Z,98085.03
2022-10-16T03:34:27.940Z,98089.78
2022-10-16T03:36:54.634Z,98087.91
2022-10-16T03:39:21.386Z,98095.16
2022-10-16T03:41:48.505Z,98086.53
2022-10-16T03:44:15.188Z,98086.16
2022-10-16T03:46:41.964Z,98093.41
2022-10-16T03:49:09.821Z,98087.66
2022-10-16T03:51:37.057Z,98089.06
2022-10-16T03:54:03.955Z,98089.91
2022-10-16T03:56:30.641Z,98089.91
2022-10-16T03:58:57.235Z,98095.09
2022-10-16T04:01:24.021Z,98089.97
2022-10-16T04:03:50.688Z,98093.69
2022-10-16T04:06:17.427Z,98098.84
2022-10-16T04:08:44.636Z,98098.03
2022-10-16T04:11:11.321Z,98105.03
2022-10-16T04:13:38.273Z,98110.38
2022-10-16T04:16:05.158Z,98114.13
2022-10-16T04:18:31.869Z,98108.16
2022-10-16T04:21:03.834Z,98112.47
2022-10-16T04:23:30.548Z,98117.81
2022-10-16T04:25:57.296Z,98118.88
2022-10-16T04:28:26.292Z,98119.94
2022-10-16T04:30:53.125Z,98120.97
2022-10-16T04:33:19.699Z,98124.47
2022-10-16T04:35:46.382Z,98127.16
2022-10-16T04:38:13.342Z,98126.56
2022-10-16T04:40:39.978Z,98122.59
2022-10-16T04:43:06.989Z,98146.75
2022-10-16T04:45:33.648Z,98134.59
2022-10-16T04:48:01.503Z,98141.81
2022-10-16T04:50:28.231Z,98131.91
2022-10-16T04:52:54.920Z,98133.78
2022-10-16T04:55:21.639Z,98145.31
2022-10-16T04:57:48.243Z,98151.75
2022-10-16T05:00:15.492Z,98161.66
2022-10-16T05:02:42.313Z,98158.97
2022-10-16T05:05:09.368Z,98157.91
2022-10-16T05:07:36.095Z,98157.91
2022-10-16T05:10:03.107Z,98146.00
2022-10-16T05:12:30.198Z,98154.84
2022-10-16T05:14:59.868Z,98165.81
2022-10-16T05:17:27.526Z,98161.94
2022-10-16T05:19:54.719Z,98166.03
2022-10-16T05:22:21.442Z,98171.38
2022-10-16T05:24:48.160Z,98177.38
2022-10-16T05:27:20.066Z,98173.88
2022-10-16T05:29:48.144Z,98169.09
2022-10-16T05:32:16.244Z,98176.09
2022-10-16T05:34:43.193Z,98174.81
2022-10-16T05:37:10.059Z,98179.59
2022-10-16T05:39:37.954Z,98196.66
2022-10-16T05:42:05.495Z,98194.19
2022-10-16T05:47:04.053Z,98196.66
2022-10-16T05:49:30.726Z,98197.84
2022-10-16T05:51:57.625Z,98191.22
2022-10-16T05:54:24.345Z,98196.94
2022-10-16T05:56:50.934Z,98195.91
2022-10-16T05:59:17.713Z,98199.78
2022-10-16T06:01:44.522Z,98211.69
2022-10-16T06:06:42.854Z,98202.16
2022-10-16T06:09:10.721Z,98206.25
2022-10-16T06:11:37.713Z,98215.03
2022-10-16T06:14:07.942Z,98209.22
2022-10-16T06:16:36.662Z,98200.72
2022-10-16T06:19:07.051Z,98202.53
2022-10-16T06:21:34.009Z,98197.28
2022-10-16T06:24:00.699Z,98203.59
2022-10-16T06:26:29.754Z,98205.97
2022-10-16T06:28:58.134Z,98205.88
2022-10-16T06:31:28.613Z,98201.47
2022-10-16T06:33:56.069Z,98209.44
2022-10-16T06:36:23.743Z,98210.38
2022-10-16T06:38:50.735Z,98212.16
2022-10-16T06:41:21.099Z,98218.84
2022-10-16T06:43:48.542Z,98226.00
2022-10-16T06:46:17.921Z,98226.72
2022-10-16T06:48:44.941Z,98227.44
2022-10-16T06:51:14.132Z,98235.16
2022-10-16T06:54:01.125Z,98236.94
2022-10-16T06:56:30.792Z,98242.78
2022-10-16T06:58:57.781Z,98240.59
2022-10-16T07:01:25.819Z,98236.50
2022-10-16T07:03:53.771Z,98231.56
2022-10-16T07:06:21.969Z,98233.69
2022-10-16T07:08:49.085Z,98244.44
2022-10-16T07:11:18.776Z,98239.56
2022-10-16T07:13:50.891Z,98238.13
2022-10-16T07:16:26.887Z,98246.66
2022-10-16T07:19:00.243Z,98244.16
2022-10-16T07:21:30.206Z,98247.91
2022-10-16T07:24:02.458Z,98253.84
2022-10-16T07:26:31.267Z,98252.16
2022-10-16T07:28:58.485Z,98258.31
2022-10-16T07:31:25.412Z,98251.25
2022-10-16T07:33:53.014Z,98248.75
2022-10-16T07:36:21.066Z,98248.22
2022-10-16T07:38:48.053Z,98241.69
2022-10-16T07:41:17.342Z,98230.34
2022-10-16T07:43:52.087Z,98235.47
2022-10-16T07:46:20.461Z,98240.03
2022-10-16T07:48:48.296Z,98229.66
2022-10-16T07:51:17.368Z,98237.22
2022-10-16T07:53:44.189Z,98233.91
2022-10-16T07:56:11.605Z,98234.94
2022-10-16T07:58:38.877Z,98240.56
2022-10-16T08:01:08.631Z,98243.44
2022-10-16T08:03:35.649Z,98240.03
2022-10-16T08:06:03.698Z,98242.38
2022-10-16T08:08:30.875Z,98245.50
2022-10-16T08:10:57.799Z,98245.16
2022-10-16T08:13:27.741Z,98246.72
2022-10-16T08:15:55.598Z,98245.53
2022-10-16T08:18:24.258Z,98240.78
2022-10-16T08:21:00.909Z,98247.41
2022-10-16T08:23:28.693Z,98241.59
2022-10-16T08:25:56.173Z,98244.38
2022-10-16T08:28:23.966Z,98247.50
2022-10-16T08:30:50.818Z,98249.19
2022-10-16T08:33:17.462Z,98247.91
2022-10-16T08:35:44.407Z,98248.50
2022-10-16T08:38:11.575Z,98235.53
2022-10-16T08:40:38.884Z,98238.25
2022-10-16T08:43:36.555Z,98241.00
2022-10-16T08:46:27.809Z,98240.16
2022-10-16T08:48:58.118Z,98247.16
2022-10-16T08:51:32.090Z,98247.72
2022-10-16T08:54:02.493Z,98243.59
2022-10-16T08:56:29.681Z,98250.31
2022-10-16T08:59:01.533Z,98247.25
2022-10-16T09:01:42.855Z,98247.19
2022-10-16T09:04:36.864Z,98250.34
2022-10-16T09:07:20.645Z,98241.50
2022-10-16T09:10:26.965Z,98252.28
2022-10-16T09:13:12.015Z,98247.25
2022-10-16T09:15:50.158Z,98253.63
2022-10-16T09:18:20.892Z,98245.81
2022-10-16T09:20:57.012Z,98261.22
2022-10-16T09:23:27.964Z,98259.75
2022-10-16T09:25:57.492Z,98255.22
2022-10-16T09:28:24.402Z,98259.72
2022-10-16T09:30:51.261Z,98261.31
2022-10-16T09:33:21.709Z,98253.84
2022-10-16T09:35:54.607Z,98252.16
2022-10-16T09:38:27.675Z,98256.72
2022-10-16T09:41:02.387Z,98256.38
2022-10-16T09:43:36.890Z,98255.34
2022-10-16T09:46:05.131Z,98259.53
2022-10-16T09:48:45.852Z,98251.25
2022-10-16T09:51:25.782Z,98245.19
2022-10-16T09:53:57.888Z,98245.91
2022-10-16T09:56:43.319Z,98247.69
2022-10-16T09:59:18.386Z,98244.50
2022-10-16T10:01:49.208Z,98250.03
2022-10-16T10:04:16.057Z,98245.84
2022-10-16T10:06:49.463Z,98247.00
2022-10-16T10:09:24.000Z,98246.59
2022-10-16T10:12:04.232Z,98244.81
2022-10-16T10:14:47.164Z,98245.22
2022-10-16T10:17:24.088Z,98234.78
2022-10-16T10:19:53.972Z,98238.53
2022-10-16T10:22:40.497Z,98235.13
2022-10-16T10:25:12.934Z,98236.94
2022-10-16T10:27:51.373Z,98236.03
2022-10-16T10:30:20.628Z,98232.56
2022-10-16T10:32:56.394Z,98234.31
2022-10-16T10:35:29.960Z,98224.91
2022-10-16T10:38:10.717Z,98217.88
2022-10-16T10:41:15.741Z,98210.88
2022-10-16T10:43:46.266Z,98215.97
2022-10-16T10:46:35.567Z,98217.88
2022-10-16T10:49:18.868Z,98200.16
2022-10-16T10:52:22.465Z,98212.50
2022-10-16T10:55:10.345Z,98210.59
2022-10-16T10:58:05.320Z,98209.03
2022-10-16T11:00:39.804Z,98200.09
2022-10-16T11:03:36.151Z,98200.38
2022-10-16T11:06:08.486Z,98198.50
2022-10-16T11:08:49.469Z,98196.97
2022-10-16T11:11:38.654Z,98198.75
2022-10-16T11:14:11.257Z,98193.47
2022-10-16T11:16:43.588Z,98192.94
2022-10-16T11:20:01.742Z,98192.47
2022-10-16T11:22:35.357Z,98194.59
2022-10-16T11:25:19.623Z,98198.50
2022-10-16T11:27:53.111Z,98202.16
2022-10-16T11:30:26.614Z,98190.38
2022-10-16T11:33:05.463Z,98201.34
2022-10-16T11:35:47.139Z,98199.72
2022-10-16T11:38:39.364Z,98191.50
2022-10-16T11:41:18.450Z,98190.75
2022-10-16T11:43:58.217Z,98192.22
2022-10-16T11:46:26.837Z,98188.84
2022-10-16T11:49:15.772Z,98179.66
2022-10-16T11:51:50.044Z,98178.09
2022-10-16T11:54:31.918Z,98178.44
2022-10-16T11:57:08.358Z,98174.44
2022-10-16T12:00:12.256Z,98182.69
2022-10-16T12:02:55.569Z,98179.59
2022-10-16T12:05:31.037Z,98170.91
2022-10-16T12:08:09.218Z,98171.38
2022-10-16T12:13:32.512Z,98176.75
2022-10-16T12:16:25.753Z,98174.47
2022-10-16T12:19:14.437Z,98168.69
2022-10-16T12:21:42.474Z,98167.25
2022-10-16T12:24:23.314Z,98176.47
2022-10-16T12:26:53.219Z,98179.03
2022-10-16T12:29:31.569Z,98173.06
2022-10-16T12:31:58.809Z,98182.41
2022-10-16T12:34:41.427Z,98187.91
2022-10-16T12:37:22.144Z,98179.38
2022-10-16T12:39:50.304Z,98177.91
2022-10-16T12:42:25.687Z,98188.75
2022-10-16T12:44:53.245Z,98185.38
2022-10-16T12:47:44.277Z,98181.50
2022-10-16T12:50:32.013Z,98177.94
2022-10-16T12:53:00.423Z,98193.47
2022-10-16T12:55:28.580Z,98195.06
2022-10-16T12:58:34.562Z,98189.56
2022-10-16T13:01:22.896Z,98199.94
2022-10-16T13:04:03.239Z,98194.59
2022-10-16T13:07:17.674Z,98211.00
2022-10-16T13:09:56.630Z,98197.75
2022-10-16T13:13:05.036Z,98199.50
2022-10-16T13:15:36.479Z,98199.50
2022-10-16T13:18:15.453Z,98201.97
2022-10-16T13:21:22.349Z,98202.78
2022-10-16T13:24:24.123Z,98206.22
2022-10-16T13:27:01.866Z,98194.41
2022-10-16T13:29:35.419Z,98191.69
2022-10-16T13:32:08.598Z,98213.81
2022-10-16T13:34:47.026Z,98200.25
2022-10-16T13:37:22.166Z,98195.41
2022-10-16T13:39:49.018Z,98202.50
2022-10-16T13:42:27.773Z,98201.38
2022-10-16T13:44:56.832Z,98195.69
2022-10-16T13:47:29.586Z,98198.59
2022-10-16T13:50:07.261Z,98207.63
2022-10-16T13:52:42.438Z,98200.66
2022-10-16T13:55:18.581Z,98195.50
2022-10-16T13:57:52.020Z,98205.66
2022-10-16T14:00:31.227Z,98203.53
2022-10-16T14:03:15.292Z,98197.56
2022-10-16T14:05:51.800Z,98211.91
2022-10-16T14:08:18.856Z,98205.13
2022-10-16T14:10:50.908Z,98205.06
2022-10-16T14:13:35.033Z,98208.25
2022-10-16T14:16:07.992Z,98215.84
2022-10-16T14:18:36.007Z,98211.13
2022-10-16T14:21:08.256Z,98219.47
2022-10-16T14:23:40.129Z,98212.50
2022-10-16T14:26:10.226Z,98218.09
2022-10-16T14:28:38.665Z,98222.59
2022-10-16T14:31:26.891Z,98221.91
2022-10-16T14:33:53.787Z,98220.38
2022-10-16T14:36:22.850Z,98227.44
2022-10-16T14:39:20.305Z,98218.31
2022-10-16T14:41:50.275Z,98227.09
2022-10-16T14:44:19.131Z,98227.84
2022-10-16T14:46:47.016Z,98230.00
2022-10-16T14:49:13.599Z,98223.31
2022-10-16T14:51:43.035Z,98222.13
2022-10-16T14:54:11.928Z,98226.41
2022-10-16T14:56:59.534Z,98227.75
2022-10-16T14:59:34.815Z,98224.88
2022-10-16T15:02:10.392Z,98227.19
2022-10-16T15:04:37.144Z,98229.66
2022-10-16T15:07:03.767Z,98238.56
2022-10-16T15:09:30.501Z,98233.28
2022-10-16T15:11:57.328Z,98236.53
2022-10-16T15:14:26.682Z,98231.03
2022-10-16T15:16:53.326Z,98239.41
2022-10-16T15:19:20.040Z,98240.69
2022-10-16T15:21:47.005Z,98232.97
2022-10-16T15:24:17.833Z,98236.25
2022-10-16T15:26:47.716Z,98239.63
2022-10-16T15:29:14.496Z,98232.78
2022-10-16T15:31:43.705Z,98242.34
2022-10-16T15:34:12.576Z,98251.25
2022-10-16T15:36:40.021Z,98249.53
2022-10-16T15:39:12.103Z,98250.81
2022-10-16T15:41:38.868Z,98259.97
2022-10-16T15:44:05.655Z,98259.06
2022-10-16T15:46:34.721Z,98260.53
2022-10-16T15:49:01.656Z,98266.66
2022-10-16T15:51:30.403Z,98280.19
2022-10-16T15:53:58.120Z,98278.09
2022-10-16T15:56:26.454Z,98283.63
2022-10-16T15:58:54.875Z,98287.28
2022-10-16T16:01:24.747Z,98289.28
2022-10-16T16:03:55.198Z,98297.50
2022-10-16T16:06:24.698Z,98304.38
2022-10-16T16:08:52.195Z,98307.19
2022-10-16T16:11:20.318Z,98309.69
2022-10-16T16:13:47.600Z,98309.19
2022-10-16T16:16:17.630Z,98308.69
2022-10-16T16:18:45.325Z,98313.09
2022-10-16T16:21:13.284Z,98313.69
2022-10-16T16:23:39.888Z,98310.97
2022-10-16T16:26:11.004Z,98312.38
2022-10-16T16:28:38.378Z,98311.03
2022-10-16T16:31:05.566Z,98323.50
2022-10-16T16:33:32.507Z,98321.88
2022-10-16T16:36:01.128Z,98327.88
2022-10-16T16:38:28.806Z,98319.72
2022-10-16T16:40:56.449Z,98320.81
2022-10-16T16:43:28.855Z,98320.00
2022-10-16T16:45:55.738Z,98320.81
2022-10-16T16:48:23.259Z,98321.09
2022-10-16T16:50:53.040Z,98331.41
2022-10-16T16:53:19.860Z,98323.22
2022-10-16T16:55:46.784Z,98335.97
2022-10-16T16:58:13.500Z,98334.06
2022-10-16T17:00:56.451Z,98356.53
2022-10-16T17:03:26.437Z,98353.03
2022-10-16T17:06:00.299Z,98349.16
2022-10-16T17:08:28.327Z,98344.78
2022-10-16T17:10:56.204Z,98353.16
2022-10-16T17:13:24.394Z,98360.19
2022-10-16T17:15:51.860Z,98357.38
2022-10-16T17:18:18.693Z,98369.53
2022-10-16T17:20:45.584Z,98376.84
2022-10-16T17:23:13.013Z,98375.19
2022-10-16T17:25:40.693Z,98380.56
2022-10-16T17:28:08.625Z,98384.31
2022-10-16T17:30:35.853Z,98385.91
2022-10-16T17:33:02.743Z,98379.91
2022-10-16T17:35:29.623Z,98378.75
2022-10-16T17:37:56.535Z,98379.22
2022-10-16T17:40:23.212Z,98370.25
2022-10-16T17:42:49.782Z,98375.88
2022-10-16T17:45:16.470Z,98373.38
2022-10-16T17:47:43.148Z,98367.88
2022-10-16T17:50:13.337Z,98374.63
2022-10-16T17:52:42.368Z,98378.09
2022-10-16T17:55:09.720Z,98384.31
2022-10-16T17:57:36.295Z,98376.97
2022-10-16T18:00:03.831Z,98375.81
2022-10-16T18:02:30.719Z,98389.56
2022-10-16T18:04:57.524Z,98386.22
2022-10-16T18:07:26.846Z,98388.59
2022-10-16T18:10:10.413Z,98388.00
2022-10-16T18:12:39.104Z,98392.53
2022-10-16T18:15:06.358Z,98378.41
2022-10-16T18:17:37.733Z,98391.34
2022-10-16T18:20:07.242Z,98400.22
2022-10-16T18:22:38.375Z,98399.81
2022-10-16T18:25:06.422Z,98406.56
2022-10-16T18:27:34.575Z,98393.78
2022-10-16T18:30:01.228Z,98397.50
2022-10-16T18:32:28.253Z,98400.19
2022-10-16T18:34:55.388Z,98403.13
2022-10-16T18:37:24.103Z,98406.91
2022-10-16T18:39:50.740Z,98405.78
2022-10-16T18:42:21.026Z,98414.66
2022-10-16T18:44:49.158Z,98417.28
2022-10-16T18:47:19.881Z,98418.84
2022-10-16T18:49:49.558Z,98428.28
2022-10-16T18:52:16.493Z,98423.59
2022-10-16T18:54:43.262Z,98423.22
2022-10-16T18:57:09.999Z,98436.41
2022-10-16T18:59:36.742Z,98436.56
2022-10-16T19:02:03.596Z,98436.50
2022-10-16T19:04:30.994Z,98437.31
2022-10-16T19:06:57.819Z,98443.22
2022-10-16T19:09:25.805Z,98439.94
2022-10-16T19:11:53.245Z,98443.13
2022-10-16T19:14:21.271Z,98442.56
2022-10-16T19:16:48.912Z,98454.91
2022-10-16T19:19:18.958Z,98453.78
2022-10-16T19:21:47.810Z,98449.94
2022-10-16T19:24:15.552Z,98456.63
2022-10-16T19:26:42.546Z,98453.84
2022-10-16T19:29:10.733Z,98461.28
2022-10-16T19:31:37.570Z,98454.97
2022-10-16T19:34:06.868Z,98452.53
2022-10-16T19:36:38.092Z,98463.88
2022-10-16T19:39:12.796Z,98467.66
2022-10-16T19:41:39.858Z,98464.41
2022-10-16T19:44:08.457Z,98470.28
2022-10-16T19:46:38.506Z,98466.91
2022-10-16T19:49:07.870Z,98471.16
2022-10-16T19:51:35.438Z,98469.75
2022-10-16T19:54:12.446Z,98472.94
2022-10-16T19:56:39.803Z,98477.44
2022-10-16T19:59:11.755Z,98477.31
2022-10-16T20:01:39.406Z,98479.94
2022-10-16T20:04:06.225Z,98480.66
2022-10-16T20:06:33.107Z,98485.94
2022-10-16T20:08:59.804Z,98482.31
2022-10-16T20:11:29.441Z,98484.69
2022-10-16T20:13:56.457Z,98483.75
2022-10-16T20:16:23.666Z,98493.97
2022-10-16T20:18:51.765Z,98495.25
2022-10-16T20:21:20.926Z,98493.81
2022-10-16T20:23:49.286Z,98495.13
2022-10-16T20:26:16.561Z,98501.22
2022-10-16T20:28:44.127Z,98501.69
2022-10-16T20:31:18.382Z,98505.09
2022-10-16T20:33:45.237Z,98512.97
2022-10-16T20:36:13.742Z,98515.19
2022-10-16T20:38:41.948Z,98523.75
2022-10-16T20:41:10.331Z,98527.97
2022-10-16T20:43:41.218Z,98526.09
2022-10-16T20:46:10.206Z,98529.59
2022-10-16T20:48:41.072Z,98532.78
2022-10-16T20:51:31.972Z,98537.34
2022-10-16T20:54:01.596Z,98548.00
2022-10-16T20:56:30.768Z,98548.94
2022-10-16T20:58:58.264Z,98546.59
2022-10-16T21:01:26.995Z,98546.03
2022-10-16T21:03:59.784Z,98547.03
2022-10-16T21:06:26.876Z,98545.88
2022-10-16T21:08:54.409Z,98549.88
2022-10-16T21:11:24.442Z,98548.09
2022-10-16T21:13:56.093Z,98550.44
2022-10-16T21:16:22.940Z,98554.75
2022-10-16T21:18:50.387Z,98561.41
2022-10-16T21:21:28.422Z,98560.03
2022-10-16T21:23:57.482Z,98561.09
2022-10-16T21:26:28.205Z,98568.56
2022-10-16T21:29:07.037Z,98559.31
2022-10-16T21:31:34.600Z,98555.28
2022-10-16T21:34:01.771Z,98559.03
2022-10-16T21:36:33.588Z,98558.69
2022-10-16T21:39:14.845Z,98562.63
2022-10-16T21:41:43.750Z,98562.44
2022-10-16T21:44:11.373Z,98563.47
2022-10-16T21:46:40.308Z,98567.66
2022-10-16T21:49:10.257Z,98561.69
2022-10-16T21:51:40.187Z,98568.34
2022-10-16T21:54:10.217Z,98565.66
2022-10-16T21:56:36.967Z,98567.53
2022-10-16T21:59:04.093Z,98570.69
2022-10-16T22:01:31.236Z,98571.97
2022-10-16T22:03:58.118Z,98563.16
2022-10-16T22:06:27.555Z,98570.19
2022-10-16T22:08:57.228Z,98584.00
2022-10-16T22:11:39.176Z,98589.59
2022-10-16T22:14:12.462Z,98592.16
2022-10-16T22:16:39.396Z,98584.78
2022-10-16T22:19:09.732Z,98585.22
2022-10-16T22:21:38.933Z,98589.78
2022-10-16T22:24:06.670Z,98586.94
2022-10-16T22:26:34.141Z,98589.06
2022-10-16T22:29:00.817Z,98589.50
2022-10-16T22:31:27.460Z,98588.31
2022-10-16T22:33:59.525Z,98583.16
2022-10-16T22:36:26.893Z,98582.81
2022-10-16T22:38:54.510Z,98595.78
2022-10-16T22:41:21.990Z,98599.53
2022-10-16T22:43:49.236Z,98603.25
2022-10-16T22:46:18.854Z,98605.13
2022-10-16T22:48:46.142Z,98609.09
2022-10-16T22:51:17.280Z,98607.91
2022-10-16T22:53:45.957Z,98612.47
2022-10-16T22:56:13.533Z,98613.72
2022-10-16T22:58:40.367Z,98613.09
2022-10-16T23:01:18.522Z,98615.78
2022-10-16T23:03:45.113Z,98615.78
2022-10-16T23:06:11.832Z,98618.50
2022-10-16T23:08:38.518Z,98608.66
2022-10-16T23:11:07.208Z,98614.59
2022-10-16T23:13:40.709Z,98621.47
2022-10-16T23:16:07.796Z,98617.59
2022-10-16T23:18:34.958Z,98629.16
2022-10-16T23:21:06.811Z,98632.28
2022-10-16T23:23:37.876Z,98639.16
2022-10-16T23:26:13.110Z,98633.41
2022-10-16T23:28:40.346Z,98638.78
2022-10-16T23:31:08.377Z,98633.88
2022-10-16T23:33:36.655Z,98634.91
2022-10-16T23:36:08.566Z,98635.34
2022-10-16T23:38:35.426Z,98636.84
2022-10-16T23:41:02.230Z,98645.13
2022-10-16T23:43:29.354Z,98650.75
2022-10-16T23:45:56.337Z,98649.31
2022-10-16T23:48:25.812Z,98653.84
2022-10-16T23:50:52.762Z,98653.03
2022-10-16T23:53:19.698Z,98657.56
2022-10-16T23:55:46.637Z,98654.50
2022-10-16T23:58:13.576Z,98658.84
